• vieta
  • image
  • image
  • image
mod_vvisit_countermod_vvisit_countermod_vvisit_countermod_vvisit_countermod_vvisit_countermod_vvisit_counter
mod_vvisit_counterŠiandien782
mod_vvisit_counterVakar228
mod_vvisit_counterŠią savaitę782
mod_vvisit_counterPraėjusią savaitę3269
mod_vvisit_counterŠį mėnesį14780
mod_vvisit_counterPraėjusį mėnesį68107
mod_vvisit_counterViso446302

Mes turime: 7 svečius, 1 bots online
Jūsų IP: 54.144.39.30
 , 
Šiandien: Rugp 29, 2016

Šiandien

Pirmadienis, 29 Rugpjūtis 2016

Orų prognozė

Šiauliai °C
   

Orų prognozė aviacijai

[source: ADDS]
METAR
EYSA 290820Z 19006KT CAVOK 23/18 Q1008 BLU NOSIG =
TAF
TAF EYSA 290800Z 2909/2918 23014KT 9000 SCT035 BECMG 2910/2911 BKN030 TEMPO 2911/2915 BKN025CB =
SR / SS: 03:30 / 17:27 UTC (EYSA 2016-08-29)

Paieška

Lankytojai

Mes turime 8 svečius online

tic logo lt